Time;durP1;ratioP1;P1;durP2;ratioP2;P2;SDS_P1;SDS_P2;PMS_P1;PMS_P2;Temp;Humidity;BMP_temperature;BMP_pressure;BME280_temperature;BME280_humidity;BME280_pressure;Samples;Min_cycle;Max_cycle;Signal;HPM_P1;HPM_P2
2022/10/01 00:00:55;;;;;;;7.05;3.65;;;;;;;11.84;83.78;100365.47;4980136;28;20030;-79
2022/10/01 00:03:23;;;;;;;6.35;3.30;;;;;;;11.67;83.97;100352.59;4977807;28;20714;-78
2022/10/01 00:06:11;;;;;;;6.03;3.60;;;;;;;11.63;86.29;100361.72;5022749;28;20045;-77
2022/10/01 00:08:41;;;;;;;6.95;3.60;;;;;;;11.60;87.45;100353.47;4997816;28;20042;-77
2022/10/01 00:11:13;;;;;;;17.70;3.95;;;;;;;11.48;88.48;100358.25;4994003;28;20038;-76
2022/10/01 00:13:41;;;;;;;6.57;3.70;;;;;;;11.44;89.39;100341.41;4991044;28;20561;-75
2022/10/01 00:16:09;;;;;;;8.65;4.20;;;;;;;11.39;90.22;100336.72;4977225;28;20038;-76
2022/10/01 00:18:40;;;;;;;6.72;3.80;;;;;;;11.31;91.41;100334.19;4990602;28;20065;-77
2022/10/01 00:21:13;;;;;;;5.85;3.83;;;;;;;11.23;91.76;100329.88;4979338;28;20041;-76
2022/10/01 00:24:12;;;;;;;7.18;3.88;;;;;;;11.30;92.02;100315.22;4992691;28;20034;-76
2022/10/01 00:26:38;;;;;;;9.20;4.18;;;;;;;11.22;92.83;100310.06;4975466;28;20072;-76
2022/10/01 00:29:10;;;;;;;8.95;4.65;;;;;;;11.21;93.22;100297.28;4973157;28;20083;-74
2022/10/01 00:31:37;;;;;;;5.80;3.90;;;;;;;11.13;94.29;100279.97;4970495;28;20026;-76
2022/10/01 00:34:03;;;;;;;12.90;5.00;;;;;;;11.07;94.44;100285.84;4970655;28;20438;-76
2022/10/01 00:36:30;;;;;;;9.98;4.72;;;;;;;10.97;95.43;100267.09;4988535;28;20042;-79
2022/10/01 00:38:59;;;;;;;7.05;3.80;;;;;;;10.85;97.11;100264.06;4971650;28;20042;-77
2022/10/01 00:41:32;;;;;;;8.13;4.18;;;;;;;10.86;98.27;100260.50;4991532;28;20033;-79
2022/10/01 00:44:00;;;;;;;5.65;3.90;;;;;;;10.80;98.17;100251.63;4973278;28;20038;-76
2022/10/01 00:46:42;;;;;;;6.80;4.00;;;;;;;10.79;98.31;100242.22;4990493;28;20118;-74
2022/10/01 00:49:13;;;;;;;8.20;3.60;;;;;;;10.76;98.57;100245.19;5013287;28;21300;-77
2022/10/01 00:51:48;;;;;;;5.50;4.25;;;;;;;10.70;99.25;100236.28;4980227;28;20044;-78
2022/10/01 00:54:29;;;;;;;5.10;3.63;;;;;;;10.80;99.29;100245.63;4993595;28;20339;-76
2022/10/01 00:57:00;;;;;;;6.63;4.10;;;;;;;10.68;99.87;100238.25;4998041;28;20487;-76
2022/10/01 00:59:28;;;;;;;5.45;3.50;;;;;;;10.64;99.72;100231.78;4963560;28;20056;-77
2022/10/01 01:01:53;;;;;;;5.85;4.05;;;;;;;10.68;99.35;100219.25;4978622;28;20557;-78
2022/10/01 01:04:19;;;;;;;5.93;3.33;;;;;;;10.63;99.84;100208.63;4978722;28;20026;-74
2022/10/01 01:06:54;;;;;;;5.20;3.70;;;;;;;10.56;100.00;100200.69;4979947;28;20037;-75
2022/10/01 01:09:29;;;;;;;8.15;3.83;;;;;;;10.67;100.00;100183.97;4992743;28;20041;-75
2022/10/01 01:12:09;;;;;;;6.40;3.83;;;;;;;10.62;100.00;100175.88;4954658;28;20038;-75
2022/10/01 01:14:53;;;;;;;4.78;3.30;;;;;;;10.62;99.97;100161.13;5004841;28;20034;-75
2022/10/01 01:17:28;;;;;;;8.02;3.92;;;;;;;10.58;100.00;100152.09;4990859;28;20065;-76
2022/10/01 01:20:25;;;;;;;7.00;3.60;;;;;;;10.62;100.00;100150.75;4972532;28;20046;-76
2022/10/01 01:23:14;;;;;;;6.68;3.60;;;;;;;10.50;100.00;100142.56;4994262;28;20034;-77
2022/10/01 01:25:43;;;;;;;5.75;3.80;;;;;;;10.48;100.00;100115.22;4987291;28;20041;-75
2022/10/01 01:28:30;;;;;;;10.00;3.92;;;;;;;10.47;100.00;100093.69;4980145;28;20038;-76
2022/10/01 01:31:00;;;;;;;9.95;4.15;;;;;;;10.46;100.00;100080.88;5005176;28;20052;-78
2022/10/01 01:33:29;;;;;;;7.78;4.20;;;;;;;10.44;100.00;100090.63;4987289;28;20125;-76
2022/10/01 01:36:05;;;;;;;6.57;3.78;;;;;;;10.47;100.00;100098.88;4971136;28;20038;-75
2022/10/01 01:38:39;;;;;;;8.27;3.42;;;;;;;10.51;100.00;100131.25;4974446;28;20042;-78
2022/10/01 01:41:06;;;;;;;6.72;3.90;;;;;;;10.44;100.00;100116.53;4973055;28;20038;-80
2022/10/01 01:43:35;;;;;;;7.75;4.10;;;;;;;10.53;100.00;100123.28;4971777;28;20065;-76
2022/10/01 01:46:06;;;;;;;4.93;3.65;;;;;;;10.58;100.00;100123.56;4981914;28;20071;-79
2022/10/01 01:48:35;;;;;;;6.18;3.67;;;;;;;10.56;100.00;100124.72;4934023;28;1071330;-76
2022/10/01 01:51:11;;;;;;;4.85;3.40;;;;;;;10.52;100.00;100125.06;4970292;28;20160;-77
2022/10/01 01:53:37;;;;;;;7.95;3.60;;;;;;;10.53;100.00;100136.25;4983198;28;20042;-75
2022/10/01 01:56:04;;;;;;;7.20;3.45;;;;;;;10.53;100.00;100131.06;4987935;28;20081;-75
2022/10/01 01:58:33;;;;;;;7.38;4.05;;;;;;;10.52;100.00;100147.59;4976764;28;20049;-76
2022/10/01 02:01:01;;;;;;;5.57;3.58;;;;;;;10.53;100.00;100141.44;5005568;28;20038;-75
2022/10/01 02:03:31;;;;;;;6.28;3.70;;;;;;;10.56;100.00;100141.06;4992089;28;20030;-77
2022/10/01 02:06:27;;;;;;;5.68;4.18;;;;;;;10.53;100.00;100141.44;4990512;28;20045;-75
2022/10/01 02:09:13;;;;;;;6.25;3.90;;;;;;;10.49;100.00;100146.16;4991661;28;20073;-76
2022/10/01 02:11:58;;;;;;;5.53;4.00;;;;;;;10.45;100.00;100137.13;4970510;28;20038;-76
2022/10/01 02:14:23;;;;;;;8.80;4.07;;;;;;;10.53;100.00;100136.25;4987587;28;20025;-76
2022/10/01 02:17:20;;;;;;;5.95;3.40;;;;;;;10.49;100.00;100132.38;4976918;28;20626;-78
2022/10/01 02:20:05;;;;;;;6.22;3.78;;;;;;;10.49;100.00;100127.19;4989868;28;20053;-77
2022/10/01 02:22:44;;;;;;;4.65;3.65;;;;;;;10.36;100.00;100109.63;4968079;28;20104;-75
2022/10/01 02:25:25;;;;;;;5.57;3.38;;;;;;;10.48;100.00;100112.63;4974179;28;20068;-77
2022/10/01 02:28:00;;;;;;;8.75;3.70;;;;;;;10.48;100.00;100113.41;4995958;28;20414;-75
2022/10/01 02:30:28;;;;;;;6.30;3.83;;;;;;;10.37;100.00;100106.03;4969907;28;20117;-76
2022/10/01 02:32:58;;;;;;;7.05;4.35;;;;;;;10.35;100.00;100065.75;4970519;28;20036;-75
2022/10/01 02:35:27;;;;;;;5.60;3.40;;;;;;;10.37;100.00;100097.47;4987772;28;20026;-76
2022/10/01 02:37:55;;;;;;;6.80;4.18;;;;;;;10.34;100.00;100101.22;5003273;28;20037;-78
2022/10/01 02:40:27;;;;;;;5.78;3.65;;;;;;;10.45;100.00;100095.66;4972381;28;20205;-75
2022/10/01 02:43:00;;;;;;;5.03;3.47;;;;;;;10.33;100.00;100090.03;5004441;28;20037;-77
2022/10/01 02:45:31;;;;;;;11.77;3.13;;;;;;;10.32;100.00;100093.63;4990822;28;20029;-76
2022/10/01 02:48:04;;;;;;;4.47;3.05;;;;;;;10.34;100.00;100072.72;4977235;28;20038;-77
2022/10/01 02:50:32;;;;;;;;;;;;;;;10.32;100.00;100066.88;4983244;28;20399;-75
2022/10/01 02:53:05;;;;;;;5.40;3.05;;;;;;;10.39;100.00;100057.44;4990517;28;19925;-75
2022/10/01 02:55:40;;;;;;;5.80;3.15;;;;;;;10.41;100.00;100059.84;4987975;28;20695;-76
2022/10/01 02:58:07;;;;;;;3.25;2.40;;;;;;;10.34;100.00;100054.56;4986757;28;20057;-75
2022/10/01 03:00:32;;;;;;;5.20;2.90;;;;;;;10.30;100.00;100053.25;4990557;28;20057;-76
2022/10/01 03:02:59;;;;;;;4.03;2.60;;;;;;;10.36;100.00;100055.19;5007686;28;20042;-77
2022/10/01 03:05:25;;;;;;;4.88;2.42;;;;;;;10.28;100.00;100055.22;4990192;28;20104;-76
2022/10/01 03:07:51;;;;;;;4.53;3.08;;;;;;;10.32;100.00;100046.97;4989229;28;20527;-76
2022/10/01 03:10:16;;;;;;;5.90;2.40;;;;;;;10.26;100.00;100033.84;4987131;28;20041;-79
2022/10/01 03:12:45;;;;;;;6.28;2.42;;;;;;;10.31;100.00;100014.25;4971495;28;20059;-76
2022/10/01 03:15:12;;;;;;;4.95;1.90;;;;;;;10.40;100.00;100007.22;4976205;28;20029;-76
2022/10/01 03:17:37;;;;;;;3.33;1.95;;;;;;;10.30;100.00;99999.69;4987456;28;20144;-74
2022/10/01 03:20:05;;;;;;;4.15;2.08;;;;;;;10.38;100.00;100004.00;4992723;28;20438;-76
2022/10/01 03:22:32;;;;;;;3.80;1.92;;;;;;;10.26;100.00;100000.97;4990434;28;20070;-76
2022/10/01 03:24:58;;;;;;;3.33;1.70;;;;;;;10.17;100.00;99994.25;4982993;28;20033;-75
2022/10/01 03:27:23;;;;;;;2.00;1.45;;;;;;;10.24;100.00;99995.16;4976311;28;20033;-75
2022/10/01 03:29:50;;;;;;;4.47;1.40;;;;;;;10.17;100.00;99998.59;4987378;28;20483;-75
2022/10/01 03:32:21;;;;;;;4.93;1.30;;;;;;;10.21;100.00;99990.34;4995560;28;20038;-77
2022/10/01 03:34:47;;;;;;;1.25;1.10;;;;;;;10.29;100.00;99963.56;4975771;28;20052;-75
2022/10/01 03:37:12;;;;;;;4.55;1.00;;;;;;;10.31;100.00;99972.78;4973144;28;20038;-74
2022/10/01 03:39:38;;;;;;;1.73;1.10;;;;;;;10.34;100.00;99984.59;4989821;28;20033;-75
2022/10/01 03:42:04;;;;;;;0.80;0.70;;;;;;;10.43;100.00;99964.59;4988074;28;20042;-76
2022/10/01 03:44:30;;;;;;;1.63;0.60;;;;;;;10.42;100.00;99944.84;4969275;28;20030;-77
2022/10/01 03:46:56;;;;;;;0.63;0.60;;;;;;;10.33;100.00;99946.69;4988477;28;20034;-76
2022/10/01 03:49:23;;;;;;;1.05;0.80;;;;;;;10.37;100.00;99955.72;4985114;28;20133;-75
2022/10/01 03:51:49;;;;;;;1.55;0.70;;;;;;;10.36;100.00;99974.88;4989547;28;20069;-77
2022/10/01 03:54:14;;;;;;;1.15;0.73;;;;;;;10.43;100.00;99962.00;4969389;28;20128;-75
2022/10/01 03:56:41;;;;;;;1.05;0.80;;;;;;;10.44;100.00;99981.78;4972611;28;20038;-76
2022/10/01 03:59:08;;;;;;;1.00;0.65;;;;;;;10.43;100.00;99996.50;4970803;28;20038;-75
2022/10/01 04:01:34;;;;;;;1.02;0.77;;;;;;;10.48;100.00;100003.75;4977310;28;20058;-74
2022/10/01 04:03:59;;;;;;;0.90;0.80;;;;;;;10.43;100.00;99983.53;4990649;28;20471;-76
2022/10/01 04:06:25;;;;;;;0.88;0.40;;;;;;;10.50;100.00;99978.47;4985730;28;20124;-74
2022/10/01 04:08:50;;;;;;;1.00;0.77;;;;;;;10.56;100.00;99961.41;4986807;28;20041;-77
2022/10/01 04:11:16;;;;;;;0.55;0.55;;;;;;;10.51;100.00;99952.38;4985924;28;21436;-75
2022/10/01 04:13:41;;;;;;;0.52;0.40;;;;;;;10.49;100.00;99943.97;4988162;28;20034;-75
2022/10/01 04:16:07;;;;;;;0.52;0.50;;;;;;;10.47;100.00;99955.47;4984759;28;20042;-75
2022/10/01 04:18:33;;;;;;;0.73;0.60;;;;;;;10.43;100.00;99967.19;4974390;28;20041;-75
2022/10/01 04:20:59;;;;;;;1.13;0.60;;;;;;;10.43;100.00;99967.97;4979941;28;20029;-74
2022/10/01 04:23:25;;;;;;;0.68;0.45;;;;;;;10.49;100.00;99987.22;4987445;28;20107;-75
2022/10/01 04:25:51;;;;;;;1.38;0.60;;;;;;;10.49;100.00;99982.03;5005284;28;20117;-75
2022/10/01 04:28:16;;;;;;;0.55;0.40;;;;;;;10.53;100.00;99975.53;4990363;28;20661;-75
2022/10/01 04:30:44;;;;;;;1.15;0.95;;;;;;;10.53;100.00;99972.94;4986383;28;20034;-75
2022/10/01 04:33:15;;;;;;;0.47;0.40;;;;;;;10.61;100.00;99967.69;4974133;28;20076;-76
2022/10/01 04:35:42;;;;;;;3.83;0.55;;;;;;;10.67;100.00;99973.94;4983880;28;20108;-75
2022/10/01 04:38:15;;;;;;;0.90;0.50;;;;;;;10.64;100.00;99976.88;5003697;28;20049;-75
2022/10/01 04:40:41;;;;;;;0.40;0.30;;;;;;;10.75;100.00;99962.69;4982085;28;20037;-77
2022/10/01 04:43:08;;;;;;;0.38;0.38;;;;;;;10.74;100.00;99966.25;4987116;28;20038;-74
2022/10/01 04:45:35;;;;;;;0.68;0.40;;;;;;;10.76;100.00;99972.09;4983321;28;22122;-75
2022/10/01 04:48:00;;;;;;;0.40;0.30;;;;;;;10.83;100.00;99963.41;4987727;28;20053;-76
2022/10/01 04:50:26;;;;;;;0.63;0.40;;;;;;;10.84;100.00;99946.06;5004000;28;20034;-76
2022/10/01 04:52:53;;;;;;;0.60;0.40;;;;;;;10.88;100.00;99953.28;5007384;28;20030;-75
2022/10/01 04:55:20;;;;;;;0.30;0.30;;;;;;;10.82;100.00;99955.81;5009290;28;20040;-75
2022/10/01 04:57:45;;;;;;;0.80;0.40;;;;;;;10.79;100.00;99950.97;4990682;28;20029;-75
2022/10/01 05:00:29;;;;;;;0.40;0.38;;;;;;;10.87;100.00;99950.91;4991526;28;20041;-74
2022/10/01 05:02:55;;;;;;;0.50;0.40;;;;;;;10.85;100.00;99945.88;5010388;28;20062;-75
2022/10/01 05:05:26;;;;;;;2.78;0.40;;;;;;;10.91;100.00;99939.97;4988546;28;20110;-75
2022/10/01 05:07:52;;;;;;;2.28;0.50;;;;;;;10.85;100.00;99945.88;5006476;28;20153;-75
2022/10/01 05:10:20;;;;;;;1.45;0.30;;;;;;;10.87;100.00;99956.88;4984089;28;20065;-75
2022/10/01 05:12:46;;;;;;;0.20;0.20;;;;;;;10.90;100.00;99946.13;5009643;28;20030;-75
2022/10/01 05:15:13;;;;;;;1.20;0.20;;;;;;;10.93;100.00;99946.78;4993400;28;20125;-77
2022/10/01 05:17:38;;;;;;;0.30;0.30;;;;;;;10.96;100.00;99949.00;4989558;28;20037;-76
2022/10/01 05:20:05;;;;;;;2.42;0.25;;;;;;;11.04;100.00;99936.78;4993695;28;20052;-74
2022/10/01 05:22:31;;;;;;;0.75;0.30;;;;;;;11.08;100.00;99945.78;4988738;28;20034;-75
2022/10/01 05:24:58;;;;;;;0.88;0.20;;;;;;;11.12;100.00;99951.44;4991424;28;20030;-76
2022/10/01 05:27:25;;;;;;;1.65;0.20;;;;;;;11.08;100.00;99945.00;4969371;28;20037;-77
2022/10/01 05:29:51;;;;;;;0.35;0.20;;;;;;;11.14;100.00;99938.28;4988400;28;20022;-75
2022/10/01 05:32:16;;;;;;;0.77;0.38;;;;;;;11.07;100.00;99948.56;5004727;28;20041;-75
2022/10/01 05:34:42;;;;;;;3.15;0.50;;;;;;;10.98;100.00;99955.66;5004221;28;20053;-76
2022/10/01 05:37:07;;;;;;;1.50;0.60;;;;;;;11.09;100.00;99954.38;5002798;28;20033;-75
2022/10/01 05:39:33;;;;;;;1.05;0.95;;;;;;;11.01;100.00;99952.69;4980152;28;20026;-75
2022/10/01 05:42:01;;;;;;;1.23;0.50;;;;;;;11.09;100.00;99970.78;4985981;28;20510;-75
2022/10/01 05:44:26;;;;;;;1.08;0.70;;;;;;;11.04;100.00;99969.69;4993793;28;20045;-75
2022/10/01 05:47:16;;;;;;;3.60;2.80;;;;;;;11.04;100.00;99973.09;4990439;28;20118;-75
2022/10/01 05:49:50;;;;;;;1.58;1.30;;;;;;;11.03;100.00;99987.03;4985026;28;20038;-75
2022/10/01 05:52:15;;;;;;;1.75;0.90;;;;;;;11.06;100.00;99984.09;4961940;28;20435;-76
2022/10/01 05:54:41;;;;;;;0.77;0.70;;;;;;;11.02;100.00;99985.44;5017630;28;20049;-74
2022/10/01 05:57:07;;;;;;;3.08;0.60;;;;;;;10.99;100.00;99990.97;5007624;28;20030;-74
2022/10/01 05:59:34;;;;;;;0.85;0.73;;;;;;;11.12;100.00;100002.53;4974981;28;20037;-77
2022/10/01 06:02:00;;;;;;;1.42;0.40;;;;;;;11.12;100.00;100005.91;5003405;28;20038;-73
2022/10/01 06:04:26;;;;;;;3.60;0.40;;;;;;;11.13;100.00;100006.72;4993914;28;20038;-75
2022/10/01 06:07:00;;;;;;;0.40;0.30;;;;;;;11.16;100.00;100008.97;4992624;28;20038;-76
2022/10/01 06:09:51;;;;;;;0.52;0.40;;;;;;;11.17;100.00;99998.41;4991261;28;20060;-75
2022/10/01 06:12:17;;;;;;;2.90;0.30;;;;;;;11.17;100.00;100003.59;4989861;28;20033;-75
2022/10/01 06:14:42;;;;;;;3.00;0.50;;;;;;;11.17;100.00;100005.38;4993397;28;20038;-74
2022/10/01 06:17:09;;;;;;;1.75;0.38;;;;;;;11.25;100.00;100007.91;4979377;28;20163;-73
2022/10/01 06:19:34;;;;;;;0.73;0.30;;;;;;;11.32;100.00;100010.56;4988751;28;20046;-75
2022/10/01 06:22:00;;;;;;;0.77;0.47;;;;;;;11.42;100.00;100009.31;4977228;28;20054;-75
2022/10/01 06:24:25;;;;;;;8.48;7.03;;;;;;;11.39;100.00;100006.25;5009488;28;20663;-75
2022/10/01 06:26:51;;;;;;;2.75;1.50;;;;;;;11.38;100.00;100008.06;4981144;28;20435;-76
2022/10/01 06:29:16;;;;;;;4.85;2.83;;;;;;;11.43;100.00;100010.94;4971791;28;20038;-74
2022/10/01 06:31:42;;;;;;;2.30;1.35;;;;;;;11.40;100.00;100006.09;5009373;28;20046;-75
2022/10/01 06:34:08;;;;;;;1.35;1.00;;;;;;;11.50;100.00;100013.59;4971768;28;20073;-74
2022/10/01 06:36:34;;;;;;;6.32;4.47;;;;;;;11.40;100.00;100019.06;4988502;28;20030;-76
2022/10/01 06:38:59;;;;;;;9.75;5.38;;;;;;;11.42;100.00;100013.69;4976599;28;20794;-76
2022/10/01 06:41:24;;;;;;;6.72;4.20;;;;;;;11.50;100.00;100011.78;4990087;28;20061;-76
2022/10/01 06:43:50;;;;;;;5.85;2.95;;;;;;;11.51;100.00;100010.03;4975547;28;20041;-75
2022/10/01 06:46:16;;;;;;;9.93;5.70;;;;;;;11.57;100.00;100009.28;4991705;28;20122;-75
2022/10/01 06:48:42;;;;;;;6.47;3.60;;;;;;;11.62;100.00;99998.34;4975993;28;20065;-75
2022/10/01 06:51:07;;;;;;;14.40;6.55;;;;;;;11.56;100.00;100020.66;4977964;28;20080;-75
2022/10/01 06:53:33;;;;;;;6.68;2.50;;;;;;;11.56;100.00;100015.47;4971876;28;20603;-74
2022/10/01 06:56:06;;;;;;;1.73;0.52;;;;;;;11.70;100.00;100016.44;5010122;28;20534;-75
2022/10/01 06:58:31;;;;;;;0.75;0.43;;;;;;;11.77;100.00;100019.94;5008478;28;20050;-74
2022/10/01 07:00:58;;;;;;;0.80;0.32;;;;;;;11.76;100.00;100023.50;4987798;28;20043;-74
2022/10/01 07:03:24;;;;;;;2.70;0.70;;;;;;;11.73;100.00;100018.66;4993314;28;20124;-75
2022/10/01 07:05:50;;;;;;;5.25;2.45;;;;;;;11.70;100.00;100024.22;4987453;28;20065;-75
2022/10/01 07:08:16;;;;;;;7.47;3.90;;;;;;;11.64;100.00;100025.75;4972877;28;20038;-75
2022/10/01 07:10:45;;;;;;;9.60;4.32;;;;;;;11.77;100.00;100027.72;4977120;28;20499;-75
2022/10/01 07:13:16;;;;;;;4.28;2.45;;;;;;;11.81;100.00;100025.53;4989081;28;20076;-77
2022/10/01 07:15:42;;;;;;;1.88;1.23;;;;;;;11.85;100.00;100040.59;4972692;28;20125;-76
2022/10/01 07:18:08;;;;;;;4.30;0.90;;;;;;;11.86;100.00;100042.19;5008823;28;20489;-74
2022/10/01 07:20:38;;;;;;;1.98;1.00;;;;;;;11.83;100.00;100039.97;4988290;28;20240;-75
2022/10/01 07:23:04;;;;;;;0.90;0.70;;;;;;;11.87;100.00;100046.41;4982862;28;20049;-76
2022/10/01 07:25:30;;;;;;;2.85;0.63;;;;;;;11.83;100.00;100055.56;4988804;28;20038;-74
2022/10/01 07:27:58;;;;;;;2.88;0.60;;;;;;;11.80;100.00;100061.09;4995374;28;20038;-76
2022/10/01 07:30:25;;;;;;;4.68;1.40;;;;;;;11.85;100.00;100063.16;4977949;28;20030;-73
2022/10/01 07:32:50;;;;;;;1.83;0.70;;;;;;;11.80;100.00;100065.50;4991401;28;20281;-75
2022/10/01 07:35:16;;;;;;;2.70;0.65;;;;;;;11.71;100.00;100058.78;4995231;28;20523;-77
2022/10/01 07:37:42;;;;;;;1.95;1.15;;;;;;;11.85;100.00;100068.38;4987922;28;20029;-77
2022/10/01 07:40:08;;;;;;;3.92;1.20;;;;;;;11.95;100.00;100073.28;4973102;28;20128;-76
2022/10/01 07:42:34;;;;;;;1.60;1.33;;;;;;;12.13;100.00;100085.88;4991368;28;20033;-76
2022/10/01 07:45:02;;;;;;;4.15;0.85;;;;;;;12.15;100.00;100076.09;4977433;28;20029;-76
2022/10/01 07:47:27;;;;;;;2.92;1.20;;;;;;;12.26;100.00;100076.44;4972249;28;20037;-76
2022/10/01 07:49:53;;;;;;;1.35;0.85;;;;;;;12.71;100.00;100076.25;4994550;28;20038;-76
2022/10/01 07:52:18;;;;;;;1.70;0.60;;;;;;;12.98;100.00;100074.66;4991970;28;20115;-77
2022/10/01 07:54:44;;;;;;;1.70;0.60;;;;;;;12.96;100.00;100075.81;4977542;28;20040;-79
2022/10/01 07:57:09;;;;;;;1.52;0.77;;;;;;;12.84;100.00;100072.94;4979609;28;20037;-77
2022/10/01 07:59:35;;;;;;;1.02;0.77;;;;;;;12.93;100.00;100071.03;4969450;28;20045;-78
2022/10/01 08:02:00;;;;;;;1.30;0.60;;;;;;;13.60;100.00;100078.28;4972504;28;20034;-78
2022/10/01 08:07:10;;;;;;;1.10;0.77;;;;;;;14.07;100.00;100081.06;5007448;28;20045;-79
2022/10/01 08:09:35;;;;;;;3.47;1.08;;;;;;;14.18;98.11;100079.69;4979260;28;20034;-76
2022/10/01 08:12:01;;;;;;;1.88;1.30;;;;;;;14.35;97.75;100091.38;4976213;28;20041;-76
2022/10/01 08:14:29;;;;;;;4.45;2.15;;;;;;;14.21;97.08;100093.13;5008740;28;20117;-79
2022/10/01 08:16:55;;;;;;;2.22;0.85;;;;;;;14.36;97.14;100087.75;4985910;28;20508;-78
2022/10/01 08:19:20;;;;;;;3.05;1.27;;;;;;;14.85;96.20;100083.19;4986421;28;20036;-76
2022/10/01 08:25:05;;;;;;;2.72;0.68;;;;;;;14.86;93.99;100099.66;5011776;28;20096;-78
2022/10/01 08:27:36;;;;;;;2.65;0.70;;;;;;;14.62;95.47;100108.88;4989947;28;20050;-80
2022/10/01 08:30:10;;;;;;;2.33;0.52;;;;;;;14.12;97.38;100115.16;4996751;28;20833;-81
2022/10/01 08:33:02;;;;;;;0.93;0.60;;;;;;;13.81;99.46;100126.06;5015623;28;20085;-81
2022/10/01 08:35:29;;;;;;;3.42;1.30;;;;;;;13.66;100.00;100133.22;5001527;28;20033;-80
2022/10/01 08:38:01;;;;;;;2.55;0.90;;;;;;;13.54;100.00;100136.34;5005066;28;20105;-81
2022/10/01 08:40:28;;;;;;;2.80;1.75;;;;;;;13.65;100.00;100129.78;4989966;28;20119;-78
2022/10/01 08:43:33;;;;;;;2.38;0.82;;;;;;;13.61;100.00;100134.56;5007576;28;20042;-79
2022/10/01 08:46:38;;;;;;;3.42;0.60;;;;;;;13.52;100.00;100138.31;5008313;28;20038;-80
2022/10/01 08:49:34;;;;;;;8.32;2.10;;;;;;;13.39;100.00;100138.25;5006306;28;20065;-81
2022/10/01 08:52:47;;;;;;;6.10;3.63;;;;;;;13.44;100.00;100139.28;4991177;28;20049;-78
2022/10/01 08:55:26;;;;;;;10.60;4.53;;;;;;;13.32;100.00;100142.63;4977332;28;20045;-76
2022/10/01 08:57:57;;;;;;;5.80;1.70;;;;;;;13.26;100.00;100144.16;4984927;28;20037;-76
2022/10/01 09:00:23;;;;;;;5.38;1.55;;;;;;;13.31;100.00;100141.00;4971075;28;20050;-75
2022/10/01 09:02:51;;;;;;;3.50;1.52;;;;;;;13.29;100.00;100151.56;4987841;28;20395;-75
2022/10/01 09:05:27;;;;;;;5.13;2.03;;;;;;;13.07;100.00;100156.00;4972560;28;20545;-75
2022/10/01 09:08:14;;;;;;;5.80;1.83;;;;;;;13.11;100.00;100159.84;4972250;28;20037;-77
2022/10/01 09:10:46;;;;;;;5.07;1.65;;;;;;;13.04;100.00;100159.00;5002883;28;20036;-77
2022/10/01 09:13:41;;;;;;;3.55;1.38;;;;;;;12.98;100.00;100152.72;4998206;28;20033;-76
2022/10/01 09:16:34;;;;;;;4.35;1.80;;;;;;;13.07;100.00;100165.59;5001652;28;20060;-77
2022/10/01 09:19:20;;;;;;;4.15;1.75;;;;;;;13.02;100.00;100168.78;5004487;28;20427;-76
2022/10/01 09:21:58;;;;;;;5.15;2.15;;;;;;;13.08;100.00;100175.84;4990883;28;20034;-76
2022/10/01 09:24:42;;;;;;;4.30;1.40;;;;;;;13.09;100.00;100184.44;4980663;28;20036;-76
2022/10/01 09:27:17;;;;;;;4.75;1.88;;;;;;;13.09;100.00;100192.25;4990260;28;20037;-76
2022/10/01 09:30:17;;;;;;;4.32;2.13;;;;;;;13.17;100.00;100189.53;5002647;28;20153;-76
2022/10/01 09:32:49;;;;;;;3.67;2.25;;;;;;;13.21;100.00;100178.53;4959556;28;20454;-75
2022/10/01 09:35:34;;;;;;;3.23;2.00;;;;;;;13.30;100.00;100176.66;4987719;28;20037;-75
2022/10/01 09:38:09;;;;;;;2.85;1.70;;;;;;;13.36;100.00;100175.88;4989565;28;20125;-75
2022/10/01 09:40:42;;;;;;;3.63;1.90;;;;;;;13.35;100.00;100179.47;5003773;28;20717;-76
2022/10/01 09:43:09;;;;;;;23.38;5.25;;;;;;;13.51;100.00;100185.41;4972988;28;20419;-75
2022/10/01 09:45:37;;;;;;;6.00;2.72;;;;;;;13.71;100.00;100194.16;5003962;28;20688;-75
2022/10/01 09:48:14;;;;;;;17.67;9.38;;;;;;;13.81;100.00;100189.41;4985978;28;20104;-76
2022/10/01 09:50:49;;;;;;;2.13;1.90;;;;;;;13.88;100.00;100197.28;4984551;28;20399;-77
2022/10/01 09:53:21;;;;;;;7.20;1.50;;;;;;;13.86;100.00;100188.03;5003106;28;20026;-77
2022/10/01 09:55:54;;;;;;;2.33;0.93;;;;;;;13.85;100.00;100189.84;4985363;28;20039;-76
2022/10/01 09:58:23;;;;;;;11.50;2.63;;;;;;;13.82;100.00;100198.03;5008110;28;20124;-75
2022/10/01 10:00:53;;;;;;;6.15;2.50;;;;;;;13.86;100.00;100201.84;5007448;28;20021;-75
2022/10/01 10:03:29;;;;;;;5.55;2.40;;;;;;;14.06;100.00;100207.19;4979369;28;20045;-75
2022/10/01 10:05:58;;;;;;;5.07;1.33;;;;;;;14.12;100.00;100216.03;4988637;28;20029;-75
2022/10/01 10:08:34;;;;;;;25.15;14.95;;;;;;;14.31;100.00;100212.69;4989430;28;20038;-75
2022/10/01 10:11:04;;;;;;;10.48;2.95;;;;;;;14.55;100.00;100202.75;4994723;28;20034;-76
2022/10/01 10:13:42;;;;;;;3.97;1.63;;;;;;;14.75;100.00;100202.84;4993996;28;20038;-75
2022/10/01 10:16:16;;;;;;;8.85;2.67;;;;;;;14.82;100.00;100208.88;4991516;28;20763;-76
2022/10/01 10:18:50;;;;;;;12.95;3.50;;;;;;;14.96;100.00;100210.50;4972214;28;20033;-76
2022/10/01 10:21:22;;;;;;;13.60;6.50;;;;;;;15.12;100.00;100216.34;5005641;28;20084;-76
2022/10/01 10:23:59;;;;;;;11.88;4.13;;;;;;;15.29;100.00;100217.53;4991608;28;20061;-77
2022/10/01 10:26:33;;;;;;;6.80;3.28;;;;;;;15.33;100.00;100234.44;4973425;28;20543;-77
2022/10/01 10:29:01;;;;;;;7.95;4.10;;;;;;;15.43;99.42;100223.59;4992574;28;20069;-75
2022/10/01 10:31:34;;;;;;;9.18;4.13;;;;;;;15.56;99.88;100234.03;4989956;28;20348;-77
2022/10/01 10:34:16;;;;;;;13.32;4.53;;;;;;;15.69;98.38;100220.16;5005047;28;20037;-77
2022/10/01 10:36:43;;;;;;;18.67;8.18;;;;;;;15.85;97.15;100228.59;4977817;28;20054;-76
2022/10/01 10:39:17;;;;;;;7.97;3.83;;;;;;;15.92;95.23;100227.56;4995165;28;20030;-80
2022/10/01 10:41:45;;;;;;;8.02;3.60;;;;;;;15.86;94.95;100240.66;4985873;28;20037;-77
2022/10/01 10:44:15;;;;;;;7.63;3.03;;;;;;;15.78;95.11;100239.06;4987489;28;20438;-78
2022/10/01 10:46:43;;;;;;;9.48;3.33;;;;;;;15.88;95.64;100243.84;4989581;28;20095;-79
2022/10/01 10:49:30;;;;;;;14.75;4.18;;;;;;;16.06;94.93;100257.09;4991229;28;20034;-77
2022/10/01 10:51:59;;;;;;;8.05;3.25;;;;;;;16.05;92.79;100249.44;4991805;28;20050;-77
2022/10/01 10:54:39;;;;;;;16.00;5.65;;;;;;;15.94;92.97;100240.44;5013687;28;20043;-82
2022/10/01 10:57:27;;;;;;;17.58;6.30;;;;;;;15.90;92.59;100255.72;4975209;28;20330;-80
2022/10/01 11:00:16;;;;;;;12.65;4.82;;;;;;;15.87;91.62;100258.75;4993224;28;20030;-77
2022/10/01 11:02:56;;;;;;;11.38;2.90;;;;;;;15.56;93.52;100275.03;4976869;28;20041;-77
2022/10/01 11:05:30;;;;;;;11.52;2.83;;;;;;;15.66;94.71;100264.19;4989636;28;20054;-76
2022/10/01 11:08:10;;;;;;;12.40;2.97;;;;;;;15.86;95.43;100257.16;4975913;28;20107;-77
2022/10/01 11:11:11;;;;;;;6.38;2.55;;;;;;;16.03;96.75;100256.69;4976685;28;20030;-78
2022/10/01 11:13:49;;;;;;;14.30;4.15;;;;;;;16.00;94.64;100252.69;4994899;28;20057;-75
2022/10/01 11:16:40;;;;;;;10.90;2.92;;;;;;;16.16;92.81;100261.88;4993832;28;21721;-80
2022/10/01 11:19:54;;;;;;;6.90;2.53;;;;;;;16.10;92.79;100255.66;4993746;28;20029;-78
2022/10/01 11:23:06;;;;;;;12.60;3.33;;;;;;;16.18;93.77;100254.66;4975879;28;20072;-76
2022/10/01 11:25:51;;;;;;;9.18;2.60;;;;;;;16.35;91.55;100257.63;5007494;28;20041;-77
2022/10/01 11:28:32;;;;;;;14.60;2.65;;;;;;;16.52;90.97;100264.00;4973061;28;20045;-78
2022/10/01 11:31:15;;;;;;;10.63;2.25;;;;;;;16.47;89.57;100260.41;5008572;28;20524;-75
2022/10/01 11:34:08;;;;;;;6.75;1.80;;;;;;;16.54;87.01;100259.34;4975168;28;20040;-78
2022/10/01 11:37:00;;;;;;;10.15;2.13;;;;;;;16.60;85.26;100264.78;4975086;28;20042;-79
2022/10/01 11:39:29;;;;;;;7.78;2.03;;;;;;;16.50;84.20;100270.44;4988224;28;20103;-78
2022/10/01 11:42:04;;;;;;;12.95;1.95;;;;;;;16.56;82.91;100267.00;5008651;28;20037;-78
2022/10/01 11:44:41;;;;;;;5.47;1.60;;;;;;;16.58;82.38;100274.66;4999863;28;20037;-78
2022/10/01 11:47:19;;;;;;;6.05;1.42;;;;;;;16.60;79.49;100288.34;4993878;28;20038;-78